sensor_id;sensor_type;location;lat;lon;timestamp;P1;durP1;ratioP1;P2;durP2;ratioP2
74162;SDS011;62515;52.758;5.076;2023-02-16T00:01:58;37.83;;;22.08;;
74162;SDS011;62515;52.758;5.076;2023-02-16T00:04:26;40.92;;;21.67;;
74162;SDS011;62515;52.758;5.076;2023-02-16T00:06:55;49.25;;;23.85;;
74162;SDS011;62515;52.758;5.076;2023-02-16T00:09:23;42.03;;;22.75;;
74162;SDS011;62515;52.758;5.076;2023-02-16T00:11:50;45.13;;;21.45;;
74162;SDS011;62515;52.758;5.076;2023-02-16T00:14:20;38.00;;;20.27;;
74162;SDS011;62515;52.758;5.076;2023-02-16T00:16:48;44.83;;;22.13;;
74162;SDS011;62515;52.758;5.076;2023-02-16T00:19:17;39.83;;;21.25;;
74162;SDS011;62515;52.758;5.076;2023-02-16T00:21:46;38.75;;;21.20;;
74162;SDS011;62515;52.758;5.076;2023-02-16T00:24:14;39.50;;;21.98;;
74162;SDS011;62515;52.758;5.076;2023-02-16T00:26:41;42.35;;;21.13;;
74162;SDS011;62515;52.758;5.076;2023-02-16T00:29:09;42.97;;;22.00;;
74162;SDS011;62515;52.758;5.076;2023-02-16T00:31:42;41.55;;;22.80;;
74162;SDS011;62515;52.758;5.076;2023-02-16T00:34:18;34.25;;;21.50;;
74162;SDS011;62515;52.758;5.076;2023-02-16T00:36:52;43.28;;;21.75;;
74162;SDS011;62515;52.758;5.076;2023-02-16T00:39:20;40.67;;;22.80;;
74162;SDS011;62515;52.758;5.076;2023-02-16T00:41:48;49.30;;;27.95;;
74162;SDS011;62515;52.758;5.076;2023-02-16T00:44:15;43.83;;;21.98;;
74162;SDS011;62515;52.758;5.076;2023-02-16T00:46:44;39.00;;;21.13;;
74162;SDS011;62515;52.758;5.076;2023-02-16T00:49:12;39.35;;;22.58;;
74162;SDS011;62515;52.758;5.076;2023-02-16T00:51:41;43.10;;;22.33;;
74162;SDS011;62515;52.758;5.076;2023-02-16T00:54:08;40.45;;;23.10;;
74162;SDS011;62515;52.758;5.076;2023-02-16T00:56:34;47.15;;;25.23;;
74162;SDS011;62515;52.758;5.076;2023-02-16T00:59:02;42.08;;;22.80;;
74162;SDS011;62515;52.758;5.076;2023-02-16T01:01:37;45.97;;;22.17;;
74162;SDS011;62515;52.758;5.076;2023-02-16T01:04:05;38.38;;;20.88;;
74162;SDS011;62515;52.758;5.076;2023-02-16T01:06:44;41.00;;;21.30;;
74162;SDS011;62515;52.758;5.076;2023-02-16T01:09:11;36.97;;;21.15;;
74162;SDS011;62515;52.758;5.076;2023-02-16T01:11:40;42.90;;;23.20;;
74162;SDS011;62515;52.758;5.076;2023-02-16T01:14:08;45.75;;;24.23;;
74162;SDS011;62515;52.758;5.076;2023-02-16T01:16:38;47.03;;;23.25;;
74162;SDS011;62515;52.758;5.076;2023-02-16T01:19:10;44.25;;;23.33;;
74162;SDS011;62515;52.758;5.076;2023-02-16T01:21:37;41.22;;;22.48;;
74162;SDS011;62515;52.758;5.076;2023-02-16T01:24:05;41.42;;;23.35;;
74162;SDS011;62515;52.758;5.076;2023-02-16T01:26:33;44.72;;;25.17;;
74162;SDS011;62515;52.758;5.076;2023-02-16T01:29:06;43.28;;;22.73;;
74162;SDS011;62515;52.758;5.076;2023-02-16T01:31:33;38.03;;;25.05;;
74162;SDS011;62515;52.758;5.076;2023-02-16T01:34:01;42.22;;;21.02;;
74162;SDS011;62515;52.758;5.076;2023-02-16T01:36:30;42.05;;;21.77;;
74162;SDS011;62515;52.758;5.076;2023-02-16T01:38:59;46.08;;;23.23;;
74162;SDS011;62515;52.758;5.076;2023-02-16T01:41:30;43.97;;;21.50;;
74162;SDS011;62515;52.758;5.076;2023-02-16T01:44:16;41.38;;;22.42;;
74162;SDS011;62515;52.758;5.076;2023-02-16T01:46:54;39.47;;;19.45;;
74162;SDS011;62515;52.758;5.076;2023-02-16T01:49:26;35.25;;;18.05;;
74162;SDS011;62515;52.758;5.076;2023-02-16T01:51:57;39.75;;;21.55;;
74162;SDS011;62515;52.758;5.076;2023-02-16T01:54:33;43.97;;;22.83;;
74162;SDS011;62515;52.758;5.076;2023-02-16T01:57:05;38.55;;;20.65;;
74162;SDS011;62515;52.758;5.076;2023-02-16T02:02:39;43.53;;;22.73;;
74162;SDS011;62515;52.758;5.076;2023-02-16T02:05:14;41.15;;;22.65;;
74162;SDS011;62515;52.758;5.076;2023-02-16T02:07:50;41.45;;;21.58;;
74162;SDS011;62515;52.758;5.076;2023-02-16T02:10:24;34.47;;;21.52;;
74162;SDS011;62515;52.758;5.076;2023-02-16T02:12:58;35.35;;;21.38;;
74162;SDS011;62515;52.758;5.076;2023-02-16T02:15:30;33.42;;;20.33;;
74162;SDS011;62515;52.758;5.076;2023-02-16T02:17:59;38.92;;;23.88;;
74162;SDS011;62515;52.758;5.076;2023-02-16T02:20:29;46.15;;;23.02;;
74162;SDS011;62515;52.758;5.076;2023-02-16T02:23:19;40.58;;;23.45;;
74162;SDS011;62515;52.758;5.076;2023-02-16T02:29:05;41.92;;;22.50;;
74162;SDS011;62515;52.758;5.076;2023-02-16T02:31:47;37.22;;;21.80;;
74162;SDS011;62515;52.758;5.076;2023-02-16T02:34:23;46.42;;;22.95;;
74162;SDS011;62515;52.758;5.076;2023-02-16T02:37:02;31.27;;;20.20;;
74162;SDS011;62515;52.758;5.076;2023-02-16T02:39:38;46.90;;;23.70;;
74162;SDS011;62515;52.758;5.076;2023-02-16T02:42:18;39.05;;;22.55;;
74162;SDS011;62515;52.758;5.076;2023-02-16T02:44:55;42.13;;;23.27;;
74162;SDS011;62515;52.758;5.076;2023-02-16T02:47:35;36.22;;;22.63;;
74162;SDS011;62515;52.758;5.076;2023-02-16T02:52:57;41.28;;;22.38;;
74162;SDS011;62515;52.758;5.076;2023-02-16T02:55:29;36.95;;;19.48;;
74162;SDS011;62515;52.758;5.076;2023-02-16T02:58:00;36.83;;;21.58;;
74162;SDS011;62515;52.758;5.076;2023-02-16T03:00:29;35.35;;;20.52;;
74162;SDS011;62515;52.758;5.076;2023-02-16T03:03:03;35.30;;;20.83;;
74162;SDS011;62515;52.758;5.076;2023-02-16T03:05:34;43.65;;;22.05;;
74162;SDS011;62515;52.758;5.076;2023-02-16T03:08:05;42.95;;;23.58;;
74162;SDS011;62515;52.758;5.076;2023-02-16T03:10:36;36.92;;;20.67;;
74162;SDS011;62515;52.758;5.076;2023-02-16T03:13:05;41.42;;;20.05;;
74162;SDS011;62515;52.758;5.076;2023-02-16T03:15:37;42.15;;;23.65;;
74162;SDS011;62515;52.758;5.076;2023-02-16T03:18:06;42.33;;;22.52;;
74162;SDS011;62515;52.758;5.076;2023-02-16T03:20:34;37.88;;;21.40;;
74162;SDS011;62515;52.758;5.076;2023-02-16T03:23:01;42.22;;;24.15;;
74162;SDS011;62515;52.758;5.076;2023-02-16T03:28:00;42.45;;;21.88;;
74162;SDS011;62515;52.758;5.076;2023-02-16T03:30:31;39.38;;;22.25;;
74162;SDS011;62515;52.758;5.076;2023-02-16T03:32:58;37.72;;;21.10;;
74162;SDS011;62515;52.758;5.076;2023-02-16T03:35:25;42.30;;;22.33;;
74162;SDS011;62515;52.758;5.076;2023-02-16T03:37:52;37.95;;;22.35;;
74162;SDS011;62515;52.758;5.076;2023-02-16T03:40:18;48.00;;;23.23;;
74162;SDS011;62515;52.758;5.076;2023-02-16T03:42:47;41.65;;;22.85;;
74162;SDS011;62515;52.758;5.076;2023-02-16T03:45:15;39.15;;;22.65;;
74162;SDS011;62515;52.758;5.076;2023-02-16T03:47:43;43.25;;;23.55;;
74162;SDS011;62515;52.758;5.076;2023-02-16T03:50:10;37.88;;;21.52;;
74162;SDS011;62515;52.758;5.076;2023-02-16T03:52:39;42.47;;;22.25;;
74162;SDS011;62515;52.758;5.076;2023-02-16T03:55:06;42.85;;;23.23;;
74162;SDS011;62515;52.758;5.076;2023-02-16T03:57:33;33.38;;;20.27;;
74162;SDS011;62515;52.758;5.076;2023-02-16T03:59:59;36.83;;;22.00;;
74162;SDS011;62515;52.758;5.076;2023-02-16T04:02:27;40.45;;;22.27;;
74162;SDS011;62515;52.758;5.076;2023-02-16T04:04:55;36.80;;;21.55;;
74162;SDS011;62515;52.758;5.076;2023-02-16T04:07:22;38.63;;;21.15;;
74162;SDS011;62515;52.758;5.076;2023-02-16T04:09:49;38.15;;;21.77;;
74162;SDS011;62515;52.758;5.076;2023-02-16T04:12:16;38.78;;;22.33;;
74162;SDS011;62515;52.758;5.076;2023-02-16T04:14:43;43.13;;;22.05;;
74162;SDS011;62515;52.758;5.076;2023-02-16T04:17:09;40.33;;;22.73;;
74162;SDS011;62515;52.758;5.076;2023-02-16T04:19:36;48.78;;;23.40;;
74162;SDS011;62515;52.758;5.076;2023-02-16T04:22:05;41.72;;;22.45;;
74162;SDS011;62515;52.758;5.076;2023-02-16T04:24:32;40.10;;;23.05;;
74162;SDS011;62515;52.758;5.076;2023-02-16T04:26:58;43.95;;;24.13;;
74162;SDS011;62515;52.758;5.076;2023-02-16T04:29:25;46.97;;;29.05;;
74162;SDS011;62515;52.758;5.076;2023-02-16T04:31:52;34.72;;;19.33;;
74162;SDS011;62515;52.758;5.076;2023-02-16T04:34:19;42.65;;;23.15;;
74162;SDS011;62515;52.758;5.076;2023-02-16T04:36:46;47.38;;;23.42;;
74162;SDS011;62515;52.758;5.076;2023-02-16T04:39:14;42.72;;;23.65;;
74162;SDS011;62515;52.758;5.076;2023-02-16T04:41:41;43.28;;;24.05;;
74162;SDS011;62515;52.758;5.076;2023-02-16T04:44:08;41.35;;;22.60;;
74162;SDS011;62515;52.758;5.076;2023-02-16T04:46:35;46.90;;;24.08;;
74162;SDS011;62515;52.758;5.076;2023-02-16T04:49:01;47.78;;;25.13;;
74162;SDS011;62515;52.758;5.076;2023-02-16T04:51:28;39.90;;;23.20;;
74162;SDS011;62515;52.758;5.076;2023-02-16T04:53:55;46.70;;;25.17;;
74162;SDS011;62515;52.758;5.076;2023-02-16T04:56:23;46.30;;;25.02;;
74162;SDS011;62515;52.758;5.076;2023-02-16T04:58:50;53.05;;;25.45;;
74162;SDS011;62515;52.758;5.076;2023-02-16T05:01:17;43.47;;;23.52;;
74162;SDS011;62515;52.758;5.076;2023-02-16T05:03:45;47.05;;;26.67;;
74162;SDS011;62515;52.758;5.076;2023-02-16T05:06:11;42.30;;;24.63;;
74162;SDS011;62515;52.758;5.076;2023-02-16T05:08:38;48.33;;;25.98;;
74162;SDS011;62515;52.758;5.076;2023-02-16T05:11:08;46.55;;;24.23;;
74162;SDS011;62515;52.758;5.076;2023-02-16T05:13:36;50.92;;;26.15;;
74162;SDS011;62515;52.758;5.076;2023-02-16T05:16:03;42.17;;;24.63;;
74162;SDS011;62515;52.758;5.076;2023-02-16T05:18:31;47.15;;;26.70;;
74162;SDS011;62515;52.758;5.076;2023-02-16T05:20:57;56.33;;;25.48;;
74162;SDS011;62515;52.758;5.076;2023-02-16T05:23:24;46.58;;;26.33;;
74162;SDS011;62515;52.758;5.076;2023-02-16T05:25:51;49.05;;;26.83;;
74162;SDS011;62515;52.758;5.076;2023-02-16T05:28:17;51.45;;;25.98;;
74162;SDS011;62515;52.758;5.076;2023-02-16T05:30:46;44.78;;;24.33;;
74162;SDS011;62515;52.758;5.076;2023-02-16T05:33:13;50.80;;;25.90;;
74162;SDS011;62515;52.758;5.076;2023-02-16T05:35:39;48.22;;;27.58;;
74162;SDS011;62515;52.758;5.076;2023-02-16T05:38:06;47.60;;;26.17;;
74162;SDS011;62515;52.758;5.076;2023-02-16T05:40:33;40.88;;;25.45;;
74162;SDS011;62515;52.758;5.076;2023-02-16T05:42:59;50.45;;;25.55;;
74162;SDS011;62515;52.758;5.076;2023-02-16T05:45:26;54.50;;;27.08;;
74162;SDS011;62515;52.758;5.076;2023-02-16T05:47:54;52.15;;;27.38;;
74162;SDS011;62515;52.758;5.076;2023-02-16T05:50:21;50.17;;;25.83;;
74162;SDS011;62515;52.758;5.076;2023-02-16T05:52:48;50.38;;;25.88;;
74162;SDS011;62515;52.758;5.076;2023-02-16T05:55:14;45.75;;;25.85;;
74162;SDS011;62515;52.758;5.076;2023-02-16T05:57:41;50.47;;;27.48;;
74162;SDS011;62515;52.758;5.076;2023-02-16T06:00:08;44.83;;;25.98;;
74162;SDS011;62515;52.758;5.076;2023-02-16T06:02:36;51.70;;;27.27;;
74162;SDS011;62515;52.758;5.076;2023-02-16T06:05:05;50.13;;;27.35;;
74162;SDS011;62515;52.758;5.076;2023-02-16T06:07:33;45.80;;;24.75;;
74162;SDS011;62515;52.758;5.076;2023-02-16T06:10:00;51.95;;;28.00;;
74162;SDS011;62515;52.758;5.076;2023-02-16T06:12:27;53.70;;;27.13;;
74162;SDS011;62515;52.758;5.076;2023-02-16T06:14:54;52.47;;;29.25;;
74162;SDS011;62515;52.758;5.076;2023-02-16T06:17:21;54.28;;;28.45;;
74162;SDS011;62515;52.758;5.076;2023-02-16T06:19:48;53.40;;;27.50;;
74162;SDS011;62515;52.758;5.076;2023-02-16T06:22:16;54.20;;;28.27;;
74162;SDS011;62515;52.758;5.076;2023-02-16T06:24:43;48.65;;;26.88;;
74162;SDS011;62515;52.758;5.076;2023-02-16T06:27:09;49.85;;;26.40;;
74162;SDS011;62515;52.758;5.076;2023-02-16T06:29:36;50.47;;;25.90;;
74162;SDS011;62515;52.758;5.076;2023-02-16T06:32:03;54.38;;;34.10;;
74162;SDS011;62515;52.758;5.076;2023-02-16T06:34:30;47.55;;;26.70;;
74162;SDS011;62515;52.758;5.076;2023-02-16T06:36:57;51.65;;;26.75;;
74162;SDS011;62515;52.758;5.076;2023-02-16T06:39:26;47.65;;;25.60;;
74162;SDS011;62515;52.758;5.076;2023-02-16T06:41:53;47.13;;;26.85;;
74162;SDS011;62515;52.758;5.076;2023-02-16T06:44:20;44.55;;;25.42;;
74162;SDS011;62515;52.758;5.076;2023-02-16T06:46:48;41.38;;;21.98;;
74162;SDS011;62515;52.758;5.076;2023-02-16T06:49:16;52.13;;;28.23;;
74162;SDS011;62515;52.758;5.076;2023-02-16T06:51:45;46.53;;;26.25;;
74162;SDS011;62515;52.758;5.076;2023-02-16T06:54:14;46.22;;;26.35;;
74162;SDS011;62515;52.758;5.076;2023-02-16T06:56:45;36.28;;;22.05;;
74162;SDS011;62515;52.758;5.076;2023-02-16T06:59:12;55.47;;;28.17;;
74162;SDS011;62515;52.758;5.076;2023-02-16T07:01:39;50.55;;;25.75;;
74162;SDS011;62515;52.758;5.076;2023-02-16T07:04:08;50.00;;;31.02;;
74162;SDS011;62515;52.758;5.076;2023-02-16T07:06:35;55.08;;;28.20;;
74162;SDS011;62515;52.758;5.076;2023-02-16T07:09:02;53.35;;;29.02;;
74162;SDS011;62515;52.758;5.076;2023-02-16T07:11:29;54.72;;;27.17;;
74162;SDS011;62515;52.758;5.076;2023-02-16T07:13:58;47.08;;;28.35;;
74162;SDS011;62515;52.758;5.076;2023-02-16T07:16:25;55.35;;;25.95;;
74162;SDS011;62515;52.758;5.076;2023-02-16T07:18:52;47.35;;;26.80;;
74162;SDS011;62515;52.758;5.076;2023-02-16T07:21:19;51.47;;;26.88;;
74162;SDS011;62515;52.758;5.076;2023-02-16T07:23:45;49.08;;;27.10;;
74162;SDS011;62515;52.758;5.076;2023-02-16T07:26:12;49.63;;;26.75;;
74162;SDS011;62515;52.758;5.076;2023-02-16T07:28:39;50.75;;;27.13;;
74162;SDS011;62515;52.758;5.076;2023-02-16T07:31:09;46.97;;;25.27;;
74162;SDS011;62515;52.758;5.076;2023-02-16T07:33:37;50.67;;;27.92;;
74162;SDS011;62515;52.758;5.076;2023-02-16T07:36:05;53.22;;;27.17;;
74162;SDS011;62515;52.758;5.076;2023-02-16T07:38:33;47.67;;;25.42;;
74162;SDS011;62515;52.758;5.076;2023-02-16T07:41:00;49.40;;;26.25;;
74162;SDS011;62515;52.758;5.076;2023-02-16T07:43:28;49.67;;;26.63;;
74162;SDS011;62515;52.758;5.076;2023-02-16T07:45:55;52.88;;;26.52;;
74162;SDS011;62515;52.758;5.076;2023-02-16T07:48:24;48.90;;;27.63;;
74162;SDS011;62515;52.758;5.076;2023-02-16T07:50:51;44.72;;;26.63;;
74162;SDS011;62515;52.758;5.076;2023-02-16T07:53:19;49.03;;;26.60;;
74162;SDS011;62515;52.758;5.076;2023-02-16T07:55:46;49.33;;;27.45;;
74162;SDS011;62515;52.758;5.076;2023-02-16T07:58:13;44.78;;;23.27;;
74162;SDS011;62515;52.758;5.076;2023-02-16T08:00:40;52.92;;;27.75;;
74162;SDS011;62515;52.758;5.076;2023-02-16T08:03:07;53.17;;;28.77;;
74162;SDS011;62515;52.758;5.076;2023-02-16T08:05:36;47.88;;;27.15;;
74162;SDS011;62515;52.758;5.076;2023-02-16T08:08:03;53.17;;;26.77;;
74162;SDS011;62515;52.758;5.076;2023-02-16T08:10:29;48.90;;;27.20;;
74162;SDS011;62515;52.758;5.076;2023-02-16T08:12:56;45.03;;;26.02;;
74162;SDS011;62515;52.758;5.076;2023-02-16T08:15:23;51.85;;;26.83;;
74162;SDS011;62515;52.758;5.076;2023-02-16T08:17:50;53.13;;;27.85;;
74162;SDS011;62515;52.758;5.076;2023-02-16T08:20:16;48.58;;;26.60;;
74162;SDS011;62515;52.758;5.076;2023-02-16T08:22:45;49.10;;;26.15;;
74162;SDS011;62515;52.758;5.076;2023-02-16T08:25:11;45.13;;;25.70;;
74162;SDS011;62515;52.758;5.076;2023-02-16T08:27:38;47.92;;;23.75;;
74162;SDS011;62515;52.758;5.076;2023-02-16T08:30:05;47.20;;;25.70;;
74162;SDS011;62515;52.758;5.076;2023-02-16T08:32:33;46.83;;;25.23;;
74162;SDS011;62515;52.758;5.076;2023-02-16T08:35:00;48.08;;;25.65;;
74162;SDS011;62515;52.758;5.076;2023-02-16T08:37:27;45.97;;;25.88;;
74162;SDS011;62515;52.758;5.076;2023-02-16T08:39:55;52.22;;;26.83;;
74162;SDS011;62515;52.758;5.076;2023-02-16T08:42:22;46.10;;;26.55;;
74162;SDS011;62515;52.758;5.076;2023-02-16T08:44:49;47.17;;;26.90;;
74162;SDS011;62515;52.758;5.076;2023-02-16T08:47:16;45.67;;;25.42;;
74162;SDS011;62515;52.758;5.076;2023-02-16T08:49:44;49.45;;;25.75;;
74162;SDS011;62515;52.758;5.076;2023-02-16T08:52:11;47.33;;;24.50;;
74162;SDS011;62515;52.758;5.076;2023-02-16T08:54:38;47.22;;;26.63;;
74162;SDS011;62515;52.758;5.076;2023-02-16T08:57:06;47.63;;;25.20;;
74162;SDS011;62515;52.758;5.076;2023-02-16T08:59:33;49.92;;;23.88;;
74162;SDS011;62515;52.758;5.076;2023-02-16T09:02:00;52.30;;;26.38;;
74162;SDS011;62515;52.758;5.076;2023-02-16T09:04:28;50.17;;;24.20;;
74162;SDS011;62515;52.758;5.076;2023-02-16T09:06:55;39.00;;;23.17;;
74162;SDS011;62515;52.758;5.076;2023-02-16T09:09:23;45.80;;;25.02;;
74162;SDS011;62515;52.758;5.076;2023-02-16T09:11:51;52.45;;;24.58;;
74162;SDS011;62515;52.758;5.076;2023-02-16T09:14:19;67.20;;;49.95;;
74162;SDS011;62515;52.758;5.076;2023-02-16T09:16:47;52.03;;;25.65;;
74162;SDS011;62515;52.758;5.076;2023-02-16T09:19:15;47.78;;;24.05;;
74162;SDS011;62515;52.758;5.076;2023-02-16T09:21:43;49.70;;;24.05;;
74162;SDS011;62515;52.758;5.076;2023-02-16T09:24:11;53.20;;;26.67;;
74162;SDS011;62515;52.758;5.076;2023-02-16T09:26:38;53.20;;;25.67;;
74162;SDS011;62515;52.758;5.076;2023-02-16T09:29:05;45.78;;;25.05;;
74162;SDS011;62515;52.758;5.076;2023-02-16T09:31:35;45.00;;;23.80;;
74162;SDS011;62515;52.758;5.076;2023-02-16T09:34:03;51.35;;;25.67;;
74162;SDS011;62515;52.758;5.076;2023-02-16T09:36:31;46.25;;;23.65;;
74162;SDS011;62515;52.758;5.076;2023-02-16T09:38:58;40.25;;;21.98;;
74162;SDS011;62515;52.758;5.076;2023-02-16T09:41:28;43.15;;;21.88;;
74162;SDS011;62515;52.758;5.076;2023-02-16T09:44:02;45.47;;;21.67;;
74162;SDS011;62515;52.758;5.076;2023-02-16T09:46:41;42.95;;;22.67;;
74162;SDS011;62515;52.758;5.076;2023-02-16T09:49:11;45.28;;;22.38;;
74162;SDS011;62515;52.758;5.076;2023-02-16T09:51:49;44.03;;;21.20;;
74162;SDS011;62515;52.758;5.076;2023-02-16T09:54:31;44.55;;;21.85;;
74162;SDS011;62515;52.758;5.076;2023-02-16T09:57:06;38.70;;;21.02;;
74162;SDS011;62515;52.758;5.076;2023-02-16T09:59:45;37.15;;;20.17;;
74162;SDS011;62515;52.758;5.076;2023-02-16T10:07:56;38.55;;;22.90;;
74162;SDS011;62515;52.758;5.076;2023-02-16T10:10:28;40.03;;;23.25;;
74162;SDS011;62515;52.758;5.076;2023-02-16T10:13:00;42.30;;;22.73;;
74162;SDS011;62515;52.758;5.076;2023-02-16T10:15:29;41.25;;;25.92;;
74162;SDS011;62515;52.758;5.076;2023-02-16T10:18:00;38.10;;;25.83;;
74162;SDS011;62515;52.758;5.076;2023-02-16T10:20:32;40.75;;;24.23;;
74162;SDS011;62515;52.758;5.076;2023-02-16T10:23:03;39.30;;;23.35;;
74162;SDS011;62515;52.758;5.076;2023-02-16T10:25:36;39.13;;;23.70;;
74162;SDS011;62515;52.758;5.076;2023-02-16T10:28:14;35.88;;;20.67;;
74162;SDS011;62515;52.758;5.076;2023-02-16T10:30:45;43.47;;;24.38;;
74162;SDS011;62515;52.758;5.076;2023-02-16T10:33:16;43.13;;;23.95;;
74162;SDS011;62515;52.758;5.076;2023-02-16T10:35:56;39.72;;;21.20;;
74162;SDS011;62515;52.758;5.076;2023-02-16T10:38:28;41.80;;;26.30;;
74162;SDS011;62515;52.758;5.076;2023-02-16T10:41:03;38.75;;;24.67;;
74162;SDS011;62515;52.758;5.076;2023-02-16T10:43:39;45.60;;;26.10;;
74162;SDS011;62515;52.758;5.076;2023-02-16T10:46:09;41.20;;;25.42;;
74162;SDS011;62515;52.758;5.076;2023-02-16T10:48:40;42.10;;;26.38;;
74162;SDS011;62515;52.758;5.076;2023-02-16T10:51:09;52.17;;;27.67;;
74162;SDS011;62515;52.758;5.076;2023-02-16T10:53:41;44.50;;;24.13;;
74162;SDS011;62515;52.758;5.076;2023-02-16T11:01:34;40.95;;;23.75;;
74162;SDS011;62515;52.758;5.076;2023-02-16T11:04:02;45.03;;;20.98;;
74162;SDS011;62515;52.758;5.076;2023-02-16T11:06:31;38.90;;;23.33;;
74162;SDS011;62515;52.758;5.076;2023-02-16T11:09:01;39.15;;;25.13;;
74162;SDS011;62515;52.758;5.076;2023-02-16T11:11:29;46.95;;;27.25;;
74162;SDS011;62515;52.758;5.076;2023-02-16T11:14:03;40.58;;;25.20;;
74162;SDS011;62515;52.758;5.076;2023-02-16T11:16:34;43.33;;;25.15;;
74162;SDS011;62515;52.758;5.076;2023-02-16T11:19:02;43.85;;;23.30;;
74162;SDS011;62515;52.758;5.076;2023-02-16T11:21:44;40.67;;;25.08;;
74162;SDS011;62515;52.758;5.076;2023-02-16T11:24:22;41.95;;;22.08;;
74162;SDS011;62515;52.758;5.076;2023-02-16T11:27:01;44.10;;;28.58;;
74162;SDS011;62515;52.758;5.076;2023-02-16T11:29:31;42.67;;;26.60;;
74162;SDS011;62515;52.758;5.076;2023-02-16T11:32:00;39.20;;;23.08;;
74162;SDS011;62515;52.758;5.076;2023-02-16T11:34:32;38.22;;;24.92;;
74162;SDS011;62515;52.758;5.076;2023-02-16T11:37:03;35.90;;;22.08;;
74162;SDS011;62515;52.758;5.076;2023-02-16T11:39:33;35.78;;;23.70;;
74162;SDS011;62515;52.758;5.076;2023-02-16T11:42:04;30.83;;;21.48;;
74162;SDS011;62515;52.758;5.076;2023-02-16T11:44:34;35.75;;;22.95;;
74162;SDS011;62515;52.758;5.076;2023-02-16T11:47:04;35.72;;;24.08;;
74162;SDS011;62515;52.758;5.076;2023-02-16T11:49:35;36.90;;;25.40;;
74162;SDS011;62515;52.758;5.076;2023-02-16T11:52:23;42.42;;;31.88;;
74162;SDS011;62515;52.758;5.076;2023-02-16T11:54:53;40.63;;;24.85;;
74162;SDS011;62515;52.758;5.076;2023-02-16T11:57:23;37.55;;;25.10;;
74162;SDS011;62515;52.758;5.076;2023-02-16T11:59:53;38.55;;;23.70;;
74162;SDS011;62515;52.758;5.076;2023-02-16T12:02:31;32.08;;;23.55;;
74162;SDS011;62515;52.758;5.076;2023-02-16T12:05:19;40.20;;;23.95;;
74162;SDS011;62515;52.758;5.076;2023-02-16T12:08:01;37.13;;;22.83;;
74162;SDS011;62515;52.758;5.076;2023-02-16T12:10:41;27.63;;;19.38;;
74162;SDS011;62515;52.758;5.076;2023-02-16T12:13:17;31.80;;;22.45;;
74162;SDS011;62515;52.758;5.076;2023-02-16T12:15:51;35.42;;;21.83;;
74162;SDS011;62515;52.758;5.076;2023-02-16T12:18:26;30.02;;;22.60;;
74162;SDS011;62515;52.758;5.076;2023-02-16T12:21:00;36.60;;;28.33;;
74162;SDS011;62515;52.758;5.076;2023-02-16T12:23:38;30.27;;;23.83;;
74162;SDS011;62515;52.758;5.076;2023-02-16T12:29:05;38.63;;;27.10;;
74162;SDS011;62515;52.758;5.076;2023-02-16T12:34:20;38.67;;;29.83;;
74162;SDS011;62515;52.758;5.076;2023-02-16T12:36:56;37.28;;;26.17;;
74162;SDS011;62515;52.758;5.076;2023-02-16T12:39:33;44.53;;;31.48;;
74162;SDS011;62515;52.758;5.076;2023-02-16T12:45:02;53.42;;;36.20;;
74162;SDS011;62515;52.758;5.076;2023-02-16T12:47:35;47.53;;;31.10;;
74162;SDS011;62515;52.758;5.076;2023-02-16T12:50:21;43.78;;;31.17;;
74162;SDS011;62515;52.758;5.076;2023-02-16T13:14:20;27.98;;;20.38;;
74162;SDS011;62515;52.758;5.076;2023-02-16T13:17:20;27.35;;;19.58;;
74162;SDS011;62515;52.758;5.076;2023-02-16T13:20:34;30.75;;;20.65;;
74162;SDS011;62515;52.758;5.076;2023-02-16T13:23:50;22.75;;;18.17;;
74162;SDS011;62515;52.758;5.076;2023-02-16T13:26:59;24.20;;;18.60;;
74162;SDS011;62515;52.758;5.076;2023-02-16T13:43:42;26.33;;;18.77;;
74162;SDS011;62515;52.758;5.076;2023-02-16T13:46:23;26.50;;;18.45;;
74162;SDS011;62515;52.758;5.076;2023-02-16T13:49:25;30.98;;;21.52;;
74162;SDS011;62515;52.758;5.076;2023-02-16T13:51:59;31.77;;;22.80;;
74162;SDS011;62515;52.758;5.076;2023-02-16T13:54:41;27.92;;;18.80;;
74162;SDS011;62515;52.758;5.076;2023-02-16T13:57:11;27.98;;;19.00;;
74162;SDS011;62515;52.758;5.076;2023-02-16T14:05:23;13.13;;;11.85;;
74162;SDS011;62515;52.758;5.076;2023-02-16T14:11:07;18.95;;;13.23;;
74162;SDS011;62515;52.758;5.076;2023-02-16T14:13:47;18.70;;;16.73;;
74162;SDS011;62515;52.758;5.076;2023-02-16T14:16:28;19.10;;;13.15;;
74162;SDS011;62515;52.758;5.076;2023-02-16T14:18:58;23.52;;;18.02;;
74162;SDS011;62515;52.758;5.076;2023-02-16T14:21:34;19.27;;;17.38;;
74162;SDS011;62515;52.758;5.076;2023-02-16T14:24:27;24.48;;;18.55;;
74162;SDS011;62515;52.758;5.076;2023-02-16T14:26:56;30.33;;;20.27;;
74162;SDS011;62515;52.758;5.076;2023-02-16T14:29:27;43.40;;;38.92;;
74162;SDS011;62515;52.758;5.076;2023-02-16T14:31:58;16.67;;;14.40;;
74162;SDS011;62515;52.758;5.076;2023-02-16T14:34:31;21.42;;;18.08;;
74162;SDS011;62515;52.758;5.076;2023-02-16T14:37:20;29.60;;;21.65;;
74162;SDS011;62515;52.758;5.076;2023-02-16T14:40:19;27.67;;;22.83;;
74162;SDS011;62515;52.758;5.076;2023-02-16T14:42:50;25.88;;;20.35;;
74162;SDS011;62515;52.758;5.076;2023-02-16T14:45:25;38.83;;;35.20;;
74162;SDS011;62515;52.758;5.076;2023-02-16T14:48:10;27.58;;;23.02;;
74162;SDS011;62515;52.758;5.076;2023-02-16T14:50:48;27.77;;;23.02;;
74162;SDS011;62515;52.758;5.076;2023-02-16T14:56:36;27.70;;;21.65;;
74162;SDS011;62515;52.758;5.076;2023-02-16T14:59:08;34.53;;;20.67;;
74162;SDS011;62515;52.758;5.076;2023-02-16T15:01:44;29.02;;;22.25;;
74162;SDS011;62515;52.758;5.076;2023-02-16T15:04:11;31.40;;;24.92;;
74162;SDS011;62515;52.758;5.076;2023-02-16T15:06:51;33.70;;;26.80;;
74162;SDS011;62515;52.758;5.076;2023-02-16T15:09:19;34.88;;;29.67;;
74162;SDS011;62515;52.758;5.076;2023-02-16T15:11:51;35.20;;;29.95;;
74162;SDS011;62515;52.758;5.076;2023-02-16T15:14:20;36.17;;;22.17;;
74162;SDS011;62515;52.758;5.076;2023-02-16T15:16:48;34.22;;;24.27;;
74162;SDS011;62515;52.758;5.076;2023-02-16T15:19:16;29.45;;;26.38;;
74162;SDS011;62515;52.758;5.076;2023-02-16T15:24:34;38.28;;;26.52;;
74162;SDS011;62515;52.758;5.076;2023-02-16T15:27:01;31.65;;;23.23;;
74162;SDS011;62515;52.758;5.076;2023-02-16T15:29:29;32.47;;;25.15;;
74162;SDS011;62515;52.758;5.076;2023-02-16T15:31:59;38.05;;;25.13;;
74162;SDS011;62515;52.758;5.076;2023-02-16T15:34:30;38.08;;;26.15;;
74162;SDS011;62515;52.758;5.076;2023-02-16T15:36:59;47.90;;;40.88;;
74162;SDS011;62515;52.758;5.076;2023-02-16T15:39:28;33.65;;;25.85;;
74162;SDS011;62515;52.758;5.076;2023-02-16T15:42:19;36.60;;;25.70;;
74162;SDS011;62515;52.758;5.076;2023-02-16T15:44:47;43.90;;;39.63;;
74162;SDS011;62515;52.758;5.076;2023-02-16T15:47:20;30.08;;;24.27;;
74162;SDS011;62515;52.758;5.076;2023-02-16T15:49:48;39.28;;;35.08;;
74162;SDS011;62515;52.758;5.076;2023-02-16T15:52:15;36.10;;;26.70;;
74162;SDS011;62515;52.758;5.076;2023-02-16T15:54:45;35.90;;;32.30;;
74162;SDS011;62515;52.758;5.076;2023-02-16T15:57:17;34.20;;;28.73;;
74162;SDS011;62515;52.758;5.076;2023-02-16T15:59:47;55.22;;;49.78;;
74162;SDS011;62515;52.758;5.076;2023-02-16T16:02:18;29.55;;;21.70;;
74162;SDS011;62515;52.758;5.076;2023-02-16T16:04:48;33.00;;;29.58;;